createdAt,value
2023-04-16T00:00:04.079Z,60.70
2023-04-16T00:05:05.788Z,61.70
2023-04-16T00:10:07.769Z,60.80
2023-04-16T00:15:09.674Z,60.80
2023-04-16T00:20:11.440Z,60.80
2023-04-16T00:25:13.539Z,60.80
2023-04-16T00:30:15.091Z,60.80
2023-04-16T00:35:16.741Z,60.80
2023-04-16T00:40:18.321Z,60.80
2023-04-16T00:45:19.970Z,60.70
2023-04-16T00:50:21.670Z,60.70
2023-04-16T00:55:23.841Z,60.70
2023-04-16T01:00:26.263Z,60.70
2023-04-16T01:05:27.917Z,60.70
2023-04-16T01:10:29.523Z,60.60
2023-04-16T01:15:31.084Z,60.60
2023-04-16T01:20:35.724Z,60.60
2023-04-16T01:25:37.713Z,60.60
2023-04-16T01:30:39.480Z,60.60
2023-04-16T01:35:41.543Z,60.60
2023-04-16T01:40:43.211Z,60.60
2023-04-16T01:45:44.801Z,60.60
2023-04-16T01:50:46.360Z,60.50
2023-04-16T01:55:47.953Z,60.50
2023-04-16T02:00:49.675Z,60.50
2023-04-16T02:05:51.738Z,60.50
2023-04-16T02:10:53.730Z,60.50
2023-04-16T02:15:55.578Z,60.60
2023-04-16T02:20:58.414Z,60.50
2023-04-16T02:26:01.068Z,60.60
2023-04-16T02:31:02.640Z,60.60
2023-04-16T02:36:04.332Z,60.60
2023-04-16T02:41:05.874Z,60.60
2023-04-16T02:46:07.520Z,60.60
2023-04-16T02:51:09.189Z,60.60
2023-04-16T02:56:10.902Z,60.60
2023-04-16T03:01:12.793Z,60.70
2023-04-16T03:06:14.681Z,60.70
2023-04-16T03:11:16.914Z,60.70
2023-04-16T03:16:18.858Z,60.70
2023-04-16T03:21:20.672Z,60.70
2023-04-16T03:26:22.421Z,60.70
2023-04-16T03:31:25.077Z,60.70
2023-04-16T03:36:27.268Z,60.90
2023-04-16T03:41:28.858Z,60.90
2023-04-16T05:03:49.845Z,60.90
2023-04-16T05:08:51.476Z,60.70
2023-04-16T05:13:53.080Z,60.60
2023-04-16T05:18:56.108Z,60.50
2023-04-16T05:23:58.505Z,60.50
2023-04-16T05:29:00.209Z,60.50
2023-04-16T05:34:01.834Z,60.50
2023-04-16T05:39:03.673Z,60.50
2023-04-16T05:44:05.559Z,60.60
2023-04-16T05:49:07.611Z,60.50
2023-04-16T05:54:09.707Z,60.70
2023-04-16T05:59:11.635Z,60.60
2023-04-16T06:04:13.715Z,60.60
2023-04-16T06:09:15.828Z,60.60
2023-04-16T06:14:17.758Z,60.70
2023-04-16T06:19:19.529Z,60.60
2023-04-16T06:24:21.334Z,60.70
2023-04-16T06:29:28.010Z,60.70
2023-04-16T06:34:39.528Z,60.60
2023-04-16T06:39:41.153Z,60.70
2023-04-16T06:44:42.844Z,60.60
2023-04-16T06:49:44.438Z,60.40
2023-04-16T06:54:46.302Z,60.40
2023-04-16T06:59:48.137Z,60.20
2023-04-16T07:04:49.928Z,60.30
2023-04-16T07:09:52.086Z,60.40
2023-04-16T07:14:53.762Z,60.80
2023-04-16T07:19:55.552Z,61.70
2023-04-16T07:24:57.270Z,61.70
2023-04-16T07:29:58.951Z,61.70
2023-04-16T07:35:00.683Z,62.30
2023-04-16T07:40:02.413Z,62.50
2023-04-16T07:45:04.171Z,62.60
2023-04-16T07:50:06.164Z,62.70
2023-04-16T07:55:08.596Z,62.50
2023-04-16T08:00:10.844Z,62.40
2023-04-16T08:05:12.927Z,62.30
2023-04-16T08:10:14.534Z,62.40
2023-04-16T08:15:16.495Z,62.40
2023-04-16T08:20:19.358Z,62.30
2023-04-16T08:25:22.886Z,62.30
2023-04-16T08:30:24.978Z,62.30
2023-04-16T08:35:27.239Z,62.30
2023-04-16T08:40:29.170Z,62.30
2023-04-16T08:45:33.430Z,62.30
2023-04-16T08:50:35.599Z,62.40
2023-04-16T08:55:38.813Z,62.30
2023-04-16T09:00:43.218Z,62.20
2023-04-16T09:05:44.879Z,62.10
2023-04-16T09:10:46.843Z,62.00
2023-04-16T09:15:51.359Z,61.90
2023-04-16T09:20:53.043Z,61.90
2023-04-16T09:25:55.692Z,61.80
2023-04-16T09:31:09.889Z,61.80
2023-04-16T09:36:11.658Z,61.80
2023-04-16T09:41:13.562Z,61.80
2023-04-16T09:46:15.347Z,61.90
2023-04-16T09:51:17.169Z,62.00
2023-04-16T09:56:23.098Z,62.00
2023-04-16T10:01:25.681Z,61.80
2023-04-16T10:06:29.171Z,61.70
2023-04-16T10:11:30.813Z,61.80
2023-04-16T10:16:33.072Z,61.70
2023-04-16T10:21:34.912Z,61.70
2023-04-16T10:26:36.876Z,61.80
2023-04-16T10:31:39.308Z,63.60
2023-04-16T10:36:41.316Z,64.90
2023-04-16T10:41:43.267Z,64.30
2023-04-16T10:46:46.608Z,63.60
2023-04-16T10:52:02.134Z,63.50
2023-04-16T10:57:04.797Z,63.60
2023-04-16T11:02:07.959Z,63.70
2023-04-16T11:07:18.521Z,63.70
2023-04-16T11:12:21.088Z,64.00
2023-04-16T11:17:23.446Z,64.80
2023-04-16T11:22:25.625Z,64.30
2023-04-16T11:27:27.380Z,64.10
2023-04-16T11:32:31.247Z,64.10
2023-04-16T11:37:36.527Z,64.10
2023-04-16T11:42:40.532Z,64.30
2023-04-16T11:47:52.710Z,64.20
2023-04-16T11:52:55.353Z,64.10
2023-04-16T11:57:57.251Z,64.00
2023-04-16T12:02:59.123Z,64.10
2023-04-16T12:08:08.054Z,64.00
2023-04-16T12:13:10.354Z,64.20
2023-04-16T12:18:12.246Z,64.20
2023-04-16T12:23:27.090Z,64.10
2023-04-16T12:28:30.157Z,64.10
2023-04-16T12:33:32.043Z,64.20
2023-04-16T12:38:33.839Z,64.10
2023-04-16T12:43:36.395Z,64.00
2023-04-16T12:48:38.085Z,63.90
2023-04-16T12:53:39.842Z,64.00
2023-04-16T12:58:41.697Z,64.00
2023-04-16T13:03:43.630Z,64.00
2023-04-16T13:08:45.895Z,64.00
2023-04-16T13:13:47.684Z,64.00
2023-04-16T13:18:49.673Z,63.90
2023-04-16T13:23:51.612Z,63.90
2023-04-16T13:28:53.464Z,65.00
2023-04-16T13:33:55.430Z,64.00
2023-04-16T13:38:57.217Z,64.00
2023-04-16T13:43:58.842Z,64.10
2023-04-16T13:49:00.587Z,64.20
2023-04-16T13:54:02.396Z,64.20
2023-04-16T13:59:04.216Z,64.30
2023-04-16T14:04:07.121Z,64.20
2023-04-16T14:09:10.742Z,64.30
2023-04-16T14:14:12.864Z,64.30
2023-04-16T14:19:14.630Z,64.20
2023-04-16T14:24:16.209Z,64.30
2023-04-16T14:29:17.906Z,64.20
2023-04-16T14:34:19.641Z,64.30
2023-04-16T14:39:21.526Z,64.20
2023-04-16T14:44:23.519Z,64.20
2023-04-16T14:49:25.567Z,64.20
2023-04-16T14:54:28.164Z,64.10
2023-04-16T14:59:29.972Z,64.00
2023-04-16T15:04:31.834Z,63.90
2023-04-16T15:09:36.515Z,63.80
2023-04-16T15:14:38.204Z,63.70
2023-04-16T15:19:40.098Z,63.50
2023-04-16T15:24:41.946Z,63.30
2023-04-16T15:29:46.490Z,63.20
2023-04-16T15:34:48.336Z,63.10
2023-04-16T15:39:50.071Z,63.10
2023-04-16T15:44:51.879Z,63.20
2023-04-16T15:49:53.619Z,63.00
2023-04-16T15:54:55.519Z,62.90
2023-04-16T16:00:06.309Z,62.70
2023-04-16T16:05:12.782Z,63.20
2023-04-16T16:10:14.734Z,64.60
2023-04-16T16:15:16.645Z,66.10
2023-04-16T16:20:18.334Z,65.80
2023-04-16T16:25:20.375Z,66.00
2023-04-16T16:30:22.176Z,67.50
2023-04-16T16:35:24.386Z,68.00
2023-04-16T16:40:26.279Z,67.60
2023-04-16T16:45:28.613Z,66.50
2023-04-16T16:50:33.177Z,66.10
2023-04-16T16:55:35.723Z,65.70
2023-04-16T17:00:38.074Z,65.00
2023-04-16T17:05:40.551Z,64.80
2023-04-16T17:10:43.669Z,64.60
2023-04-16T17:15:46.226Z,64.80
2023-04-16T17:20:48.183Z,64.90
2023-04-16T17:25:49.954Z,65.10
2023-04-16T17:30:52.537Z,65.40
2023-04-16T17:35:54.210Z,65.30
2023-04-16T17:40:57.062Z,65.30
2023-04-16T17:45:58.948Z,65.30
2023-04-16T17:51:08.143Z,65.20
2023-04-16T17:56:09.876Z,65.10
2023-04-16T18:01:11.709Z,65.10
2023-04-16T18:06:13.475Z,65.00
2023-04-16T18:11:15.219Z,65.10
2023-04-16T18:16:17.404Z,65.00
2023-04-16T18:21:19.352Z,65.00
2023-04-16T18:26:22.923Z,64.80
2023-04-16T18:31:24.904Z,64.80
2023-04-16T18:36:27.174Z,64.60
2023-04-16T18:41:29.186Z,64.60
2023-04-16T18:46:30.944Z,64.50
2023-04-16T18:51:32.770Z,64.30
2023-04-16T18:56:34.450Z,64.20
2023-04-16T19:01:36.338Z,64.10
2023-04-16T19:06:37.964Z,64.10
2023-04-16T19:11:39.678Z,64.00
2023-04-16T19:16:41.785Z,63.80
2023-04-16T19:21:43.603Z,63.70
2023-04-16T19:26:45.431Z,63.70
2023-04-16T19:31:47.280Z,63.50
2023-04-16T19:36:49.093Z,63.40
2023-04-16T19:41:52.791Z,63.40
2023-04-16T19:46:54.520Z,63.40
2023-04-16T19:51:56.805Z,63.40
2023-04-16T19:56:58.503Z,63.40
2023-04-16T20:02:00.469Z,63.40
2023-04-16T20:07:02.579Z,63.40
2023-04-16T20:12:04.353Z,63.40
2023-04-16T20:17:09.837Z,63.50
2023-04-16T20:22:11.922Z,63.40
2023-04-16T20:27:14.261Z,63.40
2023-04-16T20:32:16.326Z,63.40
2023-04-16T20:37:18.229Z,63.40
2023-04-16T20:42:22.068Z,63.30
2023-04-16T20:47:23.851Z,63.40
2023-04-16T20:52:25.549Z,63.30
2023-04-16T20:57:28.177Z,63.30
2023-04-16T21:02:30.145Z,63.50
2023-04-16T21:07:32.073Z,63.50
2023-04-16T21:12:33.737Z,63.60
2023-04-16T21:17:35.446Z,63.60
2023-04-16T21:22:37.089Z,63.50
2023-04-16T21:27:38.769Z,63.50
2023-04-16T21:32:40.415Z,63.30
2023-04-16T21:37:42.179Z,63.30
2023-04-16T21:42:44.578Z,63.20
2023-04-16T21:47:46.307Z,63.20
2023-04-16T21:52:48.267Z,63.20
2023-04-16T21:57:49.951Z,63.20
2023-04-16T22:02:56.742Z,63.10
2023-04-16T22:07:58.625Z,63.00
2023-04-16T22:13:01.739Z,63.00
2023-04-16T22:18:03.470Z,63.00
2023-04-16T22:23:05.856Z,63.10
2023-04-16T22:28:07.507Z,63.00
2023-04-16T22:33:09.277Z,63.00
2023-04-16T22:38:10.907Z,63.00
2023-04-16T22:43:12.749Z,62.90
2023-04-16T22:48:14.395Z,62.90
2023-04-16T22:53:16.216Z,62.90
2023-04-16T22:58:17.916Z,62.90
2023-04-16T23:03:19.830Z,62.80
2023-04-16T23:08:21.768Z,62.80
2023-04-16T23:13:23.561Z,62.80
2023-04-16T23:18:25.710Z,62.70
2023-04-16T23:23:27.630Z,62.70
2023-04-16T23:28:29.208Z,62.60
2023-04-16T23:33:30.792Z,62.60
2023-04-16T23:38:32.441Z,62.60
2023-04-16T23:43:35.178Z,62.60
2023-04-16T23:48:36.921Z,62.50
2023-04-16T23:53:40.774Z,62.50
2023-04-16T23:58:42.521Z,62.50
